sensor_id;sensor_type;location;lat;lon;timestamp;temperature;humidity
11091;DHT22;5599;52.210;21.046;2024-02-21T00:00:26;5.70;1.00
11091;DHT22;5599;52.210;21.046;2024-02-21T00:02:55;5.80;1.00
11091;DHT22;5599;52.210;21.046;2024-02-21T00:05:35;5.80;1.00
11091;DHT22;5599;52.210;21.046;2024-02-21T00:08:05;5.70;1.00
11091;DHT22;5599;52.210;21.046;2024-02-21T00:10:34;5.70;1.00
11091;DHT22;5599;52.210;21.046;2024-02-21T00:13:03;5.70;1.00
11091;DHT22;5599;52.210;21.046;2024-02-21T00:15:33;5.70;1.00
11091;DHT22;5599;52.210;21.046;2024-02-21T00:18:03;5.70;1.00
11091;DHT22;5599;52.210;21.046;2024-02-21T00:20:32;5.80;1.00
11091;DHT22;5599;52.210;21.046;2024-02-21T00:23:01;5.70;1.00
11091;DHT22;5599;52.210;21.046;2024-02-21T00:25:30;5.70;1.00
11091;DHT22;5599;52.210;21.046;2024-02-21T00:27:59;5.80;1.00
11091;DHT22;5599;52.210;21.046;2024-02-21T00:30:28;5.80;1.00
11091;DHT22;5599;52.210;21.046;2024-02-21T00:32:58;5.80;1.00
11091;DHT22;5599;52.210;21.046;2024-02-21T00:35:27;5.80;1.00
11091;DHT22;5599;52.210;21.046;2024-02-21T00:37:56;5.80;1.00
11091;DHT22;5599;52.210;21.046;2024-02-21T00:40:27;5.80;1.00
11091;DHT22;5599;52.210;21.046;2024-02-21T00:42:55;5.80;1.00
11091;DHT22;5599;52.210;21.046;2024-02-21T00:45:24;5.80;1.00
11091;DHT22;5599;52.210;21.046;2024-02-21T00:47:53;5.80;1.00
11091;DHT22;5599;52.210;21.046;2024-02-21T00:50:24;5.80;1.00
11091;DHT22;5599;52.210;21.046;2024-02-21T00:52:52;5.80;1.00
11091;DHT22;5599;52.210;21.046;2024-02-21T00:55:21;5.80;1.00
11091;DHT22;5599;52.210;21.046;2024-02-21T00:57:50;5.90;1.00
11091;DHT22;5599;52.210;21.046;2024-02-21T01:00:19;5.90;1.00
11091;DHT22;5599;52.210;21.046;2024-02-21T01:02:48;5.90;1.00
11091;DHT22;5599;52.210;21.046;2024-02-21T01:05:20;5.90;1.00
11091;DHT22;5599;52.210;21.046;2024-02-21T01:07:51;5.90;1.00
11091;DHT22;5599;52.210;21.046;2024-02-21T01:10:20;5.90;1.00
11091;DHT22;5599;52.210;21.046;2024-02-21T01:12:50;6.00;1.00
11091;DHT22;5599;52.210;21.046;2024-02-21T01:15:19;6.00;1.00
11091;DHT22;5599;52.210;21.046;2024-02-21T01:17:48;6.00;1.00
11091;DHT22;5599;52.210;21.046;2024-02-21T01:20:22;5.90;1.00
11091;DHT22;5599;52.210;21.046;2024-02-21T01:22:52;6.00;1.00
11091;DHT22;5599;52.210;21.046;2024-02-21T01:25:21;6.00;1.00
11091;DHT22;5599;52.210;21.046;2024-02-21T01:27:50;6.00;1.00
11091;DHT22;5599;52.210;21.046;2024-02-21T01:30:19;6.00;1.00
11091;DHT22;5599;52.210;21.046;2024-02-21T01:32:48;6.00;1.00
11091;DHT22;5599;52.210;21.046;2024-02-21T01:35:17;6.00;1.00
11091;DHT22;5599;52.210;21.046;2024-02-21T01:37:46;6.10;1.00
11091;DHT22;5599;52.210;21.046;2024-02-21T01:40:18;6.10;1.00
11091;DHT22;5599;52.210;21.046;2024-02-21T01:42:46;6.10;1.00
11091;DHT22;5599;52.210;21.046;2024-02-21T01:45:16;6.20;1.00
11091;DHT22;5599;52.210;21.046;2024-02-21T01:47:45;6.20;1.00
11091;DHT22;5599;52.210;21.046;2024-02-21T01:50:15;6.20;1.00
11091;DHT22;5599;52.210;21.046;2024-02-21T01:52:45;6.20;1.00
11091;DHT22;5599;52.210;21.046;2024-02-21T01:55:14;6.20;1.00
11091;DHT22;5599;52.210;21.046;2024-02-21T01:57:46;6.20;1.00
11091;DHT22;5599;52.210;21.046;2024-02-21T02:00:15;6.20;1.00
11091;DHT22;5599;52.210;21.046;2024-02-21T02:02:46;6.20;1.00
11091;DHT22;5599;52.210;21.046;2024-02-21T02:05:15;6.20;1.00
11091;DHT22;5599;52.210;21.046;2024-02-21T02:07:46;6.10;1.00
11091;DHT22;5599;52.210;21.046;2024-02-21T02:10:15;6.20;1.00
11091;DHT22;5599;52.210;21.046;2024-02-21T02:12:45;6.20;1.00
11091;DHT22;5599;52.210;21.046;2024-02-21T02:15:14;6.20;1.00
11091;DHT22;5599;52.210;21.046;2024-02-21T02:17:42;6.20;1.00
11091;DHT22;5599;52.210;21.046;2024-02-21T02:20:12;6.20;1.00
11091;DHT22;5599;52.210;21.046;2024-02-21T02:22:43;6.10;1.00
11091;DHT22;5599;52.210;21.046;2024-02-21T02:25:15;6.20;1.00
11091;DHT22;5599;52.210;21.046;2024-02-21T02:27:44;6.20;1.00
11091;DHT22;5599;52.210;21.046;2024-02-21T02:30:14;6.20;1.00
11091;DHT22;5599;52.210;21.046;2024-02-21T02:32:45;6.30;1.00
11091;DHT22;5599;52.210;21.046;2024-02-21T02:35:14;6.30;1.00
11091;DHT22;5599;52.210;21.046;2024-02-21T02:37:48;6.30;1.00
11091;DHT22;5599;52.210;21.046;2024-02-21T02:40:19;6.30;1.00
11091;DHT22;5599;52.210;21.046;2024-02-21T02:42:48;6.30;1.00
11091;DHT22;5599;52.210;21.046;2024-02-21T02:45:17;6.30;1.00
11091;DHT22;5599;52.210;21.046;2024-02-21T02:47:47;6.30;1.00
11091;DHT22;5599;52.210;21.046;2024-02-21T02:50:16;6.30;1.00
11091;DHT22;5599;52.210;21.046;2024-02-21T02:52:44;6.20;1.00
11091;DHT22;5599;52.210;21.046;2024-02-21T02:55:13;6.30;1.00
11091;DHT22;5599;52.210;21.046;2024-02-21T02:57:44;6.30;1.00
11091;DHT22;5599;52.210;21.046;2024-02-21T03:00:14;6.30;1.00
11091;DHT22;5599;52.210;21.046;2024-02-21T03:02:43;6.30;1.00
11091;DHT22;5599;52.210;21.046;2024-02-21T03:05:14;6.30;1.00
11091;DHT22;5599;52.210;21.046;2024-02-21T03:07:44;6.30;1.00
11091;DHT22;5599;52.210;21.046;2024-02-21T03:10:14;6.30;1.00
11091;DHT22;5599;52.210;21.046;2024-02-21T03:12:46;6.30;1.00
11091;DHT22;5599;52.210;21.046;2024-02-21T03:15:15;6.30;1.00
11091;DHT22;5599;52.210;21.046;2024-02-21T03:17:44;6.30;1.00
11091;DHT22;5599;52.210;21.046;2024-02-21T03:20:13;6.30;1.00
11091;DHT22;5599;52.210;21.046;2024-02-21T03:22:42;6.30;1.00
11091;DHT22;5599;52.210;21.046;2024-02-21T03:25:11;6.30;1.00
11091;DHT22;5599;52.210;21.046;2024-02-21T03:27:41;6.30;1.00
11091;DHT22;5599;52.210;21.046;2024-02-21T03:30:12;6.40;1.00
11091;DHT22;5599;52.210;21.046;2024-02-21T03:32:41;6.40;1.00
11091;DHT22;5599;52.210;21.046;2024-02-21T03:35:10;6.30;1.00
11091;DHT22;5599;52.210;21.046;2024-02-21T03:37:39;6.40;1.00
11091;DHT22;5599;52.210;21.046;2024-02-21T03:40:09;6.40;1.00
11091;DHT22;5599;52.210;21.046;2024-02-21T03:42:38;6.30;1.00
11091;DHT22;5599;52.210;21.046;2024-02-21T03:45:08;6.30;1.00
11091;DHT22;5599;52.210;21.046;2024-02-21T03:47:38;6.30;1.00
11091;DHT22;5599;52.210;21.046;2024-02-21T03:50:08;6.30;1.00
11091;DHT22;5599;52.210;21.046;2024-02-21T03:52:37;6.30;1.00
11091;DHT22;5599;52.210;21.046;2024-02-21T03:55:07;6.30;1.00
11091;DHT22;5599;52.210;21.046;2024-02-21T03:57:36;6.20;1.00
11091;DHT22;5599;52.210;21.046;2024-02-21T04:00:06;6.20;1.00
11091;DHT22;5599;52.210;21.046;2024-02-21T04:02:40;6.10;1.00
11091;DHT22;5599;52.210;21.046;2024-02-21T04:05:09;6.10;1.00
11091;DHT22;5599;52.210;21.046;2024-02-21T04:07:39;6.20;1.00
11091;DHT22;5599;52.210;21.046;2024-02-21T04:10:08;6.10;1.00
11091;DHT22;5599;52.210;21.046;2024-02-21T04:12:38;6.10;1.00
11091;DHT22;5599;52.210;21.046;2024-02-21T04:15:07;6.00;1.00
11091;DHT22;5599;52.210;21.046;2024-02-21T04:17:37;6.00;1.00
11091;DHT22;5599;52.210;21.046;2024-02-21T04:20:14;6.10;1.00
11091;DHT22;5599;52.210;21.046;2024-02-21T04:22:44;6.00;1.00
11091;DHT22;5599;52.210;21.046;2024-02-21T04:25:13;6.00;1.00
11091;DHT22;5599;52.210;21.046;2024-02-21T04:27:42;6.10;1.00
11091;DHT22;5599;52.210;21.046;2024-02-21T04:30:11;6.10;1.00
11091;DHT22;5599;52.210;21.046;2024-02-21T04:32:40;6.10;1.00
11091;DHT22;5599;52.210;21.046;2024-02-21T04:35:11;6.10;1.00
11091;DHT22;5599;52.210;21.046;2024-02-21T04:37:40;6.20;1.00
11091;DHT22;5599;52.210;21.046;2024-02-21T04:40:09;6.20;1.00
11091;DHT22;5599;52.210;21.046;2024-02-21T04:42:38;6.30;1.00
11091;DHT22;5599;52.210;21.046;2024-02-21T04:45:08;6.30;1.00
11091;DHT22;5599;52.210;21.046;2024-02-21T04:47:37;6.30;1.00
11091;DHT22;5599;52.210;21.046;2024-02-21T04:50:07;6.30;1.00
11091;DHT22;5599;52.210;21.046;2024-02-21T04:52:37;6.30;1.00
11091;DHT22;5599;52.210;21.046;2024-02-21T04:55:06;6.40;1.00
11091;DHT22;5599;52.210;21.046;2024-02-21T04:57:35;6.40;1.00
11091;DHT22;5599;52.210;21.046;2024-02-21T05:00:05;6.40;1.00
11091;DHT22;5599;52.210;21.046;2024-02-21T05:02:34;6.40;1.00
11091;DHT22;5599;52.210;21.046;2024-02-21T05:05:03;6.40;1.00
11091;DHT22;5599;52.210;21.046;2024-02-21T05:07:34;6.40;1.00
11091;DHT22;5599;52.210;21.046;2024-02-21T05:10:07;6.50;1.00
11091;DHT22;5599;52.210;21.046;2024-02-21T05:12:36;6.50;1.00
11091;DHT22;5599;52.210;21.046;2024-02-21T05:15:06;6.50;1.00
11091;DHT22;5599;52.210;21.046;2024-02-21T05:17:35;6.50;1.00
11091;DHT22;5599;52.210;21.046;2024-02-21T05:20:05;6.50;1.00
11091;DHT22;5599;52.210;21.046;2024-02-21T05:22:35;6.50;1.00
11091;DHT22;5599;52.210;21.046;2024-02-21T05:25:06;6.60;1.00
11091;DHT22;5599;52.210;21.046;2024-02-21T05:27:35;6.50;1.00
11091;DHT22;5599;52.210;21.046;2024-02-21T05:30:06;6.60;1.00
11091;DHT22;5599;52.210;21.046;2024-02-21T05:32:35;6.60;1.00
11091;DHT22;5599;52.210;21.046;2024-02-21T05:35:04;6.60;1.00
11091;DHT22;5599;52.210;21.046;2024-02-21T05:37:33;6.70;1.00
11091;DHT22;5599;52.210;21.046;2024-02-21T05:40:02;6.70;1.00
11091;DHT22;5599;52.210;21.046;2024-02-21T05:42:32;6.70;1.00
11091;DHT22;5599;52.210;21.046;2024-02-21T05:45:01;6.60;1.00
11091;DHT22;5599;52.210;21.046;2024-02-21T05:47:30;6.60;1.00
11091;DHT22;5599;52.210;21.046;2024-02-21T05:49:59;6.60;1.00
11091;DHT22;5599;52.210;21.046;2024-02-21T05:52:28;6.60;1.00
11091;DHT22;5599;52.210;21.046;2024-02-21T05:54:57;6.60;1.00
11091;DHT22;5599;52.210;21.046;2024-02-21T05:57:26;6.60;1.00
11091;DHT22;5599;52.210;21.046;2024-02-21T05:59:56;6.60;1.00
11091;DHT22;5599;52.210;21.046;2024-02-21T06:02:25;6.60;1.00
11091;DHT22;5599;52.210;21.046;2024-02-21T06:04:54;6.70;1.00
11091;DHT22;5599;52.210;21.046;2024-02-21T06:07:23;6.70;1.00
11091;DHT22;5599;52.210;21.046;2024-02-21T06:09:52;6.70;1.00
11091;DHT22;5599;52.210;21.046;2024-02-21T06:12:20;6.70;1.00
11091;DHT22;5599;52.210;21.046;2024-02-21T06:14:49;6.70;1.00
11091;DHT22;5599;52.210;21.046;2024-02-21T06:17:20;6.70;1.00
11091;DHT22;5599;52.210;21.046;2024-02-21T06:19:48;6.80;1.00
11091;DHT22;5599;52.210;21.046;2024-02-21T06:22:17;6.80;1.00
11091;DHT22;5599;52.210;21.046;2024-02-21T06:24:46;6.90;1.00
11091;DHT22;5599;52.210;21.046;2024-02-21T06:27:15;6.90;1.00
11091;DHT22;5599;52.210;21.046;2024-02-21T06:29:44;6.90;1.00
11091;DHT22;5599;52.210;21.046;2024-02-21T06:32:13;6.90;1.00
11091;DHT22;5599;52.210;21.046;2024-02-21T06:34:44;7.10;1.00
11091;DHT22;5599;52.210;21.046;2024-02-21T06:37:13;7.10;1.00
11091;DHT22;5599;52.210;21.046;2024-02-21T06:39:42;7.20;1.00
11091;DHT22;5599;52.210;21.046;2024-02-21T06:42:11;7.10;1.00
11091;DHT22;5599;52.210;21.046;2024-02-21T06:44:40;7.20;1.00
11091;DHT22;5599;52.210;21.046;2024-02-21T06:47:09;7.20;1.00
11091;DHT22;5599;52.210;21.046;2024-02-21T06:49:38;7.10;1.00
11091;DHT22;5599;52.210;21.046;2024-02-21T06:52:08;7.20;1.00
11091;DHT22;5599;52.210;21.046;2024-02-21T06:54:37;7.20;1.00
11091;DHT22;5599;52.210;21.046;2024-02-21T06:57:07;7.30;1.00
11091;DHT22;5599;52.210;21.046;2024-02-21T06:59:36;7.20;1.00
11091;DHT22;5599;52.210;21.046;2024-02-21T07:02:05;7.30;1.00
11091;DHT22;5599;52.210;21.046;2024-02-21T07:04:35;7.30;1.00
11091;DHT22;5599;52.210;21.046;2024-02-21T07:07:04;7.30;1.00
11091;DHT22;5599;52.210;21.046;2024-02-21T07:09:34;7.20;1.00
11091;DHT22;5599;52.210;21.046;2024-02-21T07:12:04;7.30;1.00
11091;DHT22;5599;52.210;21.046;2024-02-21T07:14:33;7.30;1.00
11091;DHT22;5599;52.210;21.046;2024-02-21T07:17:02;7.30;1.00
11091;DHT22;5599;52.210;21.046;2024-02-21T07:19:31;7.30;1.00
11091;DHT22;5599;52.210;21.046;2024-02-21T07:22:00;7.30;1.00
11091;DHT22;5599;52.210;21.046;2024-02-21T07:24:29;7.40;1.00
11091;DHT22;5599;52.210;21.046;2024-02-21T07:27:00;7.50;1.00
11091;DHT22;5599;52.210;21.046;2024-02-21T07:29:32;7.50;1.00
11091;DHT22;5599;52.210;21.046;2024-02-21T07:32:02;7.50;1.00
11091;DHT22;5599;52.210;21.046;2024-02-21T07:34:31;7.60;1.00
11091;DHT22;5599;52.210;21.046;2024-02-21T07:37:01;7.60;1.00
11091;DHT22;5599;52.210;21.046;2024-02-21T07:39:30;7.60;1.00
11091;DHT22;5599;52.210;21.046;2024-02-21T07:42:00;7.60;1.00
11091;DHT22;5599;52.210;21.046;2024-02-21T07:44:29;7.70;1.00
11091;DHT22;5599;52.210;21.046;2024-02-21T07:46:59;7.70;1.00
11091;DHT22;5599;52.210;21.046;2024-02-21T07:49:28;7.80;1.00
11091;DHT22;5599;52.210;21.046;2024-02-21T07:51:57;7.80;1.00
11091;DHT22;5599;52.210;21.046;2024-02-21T07:54:26;7.70;1.00
11091;DHT22;5599;52.210;21.046;2024-02-21T07:56:57;7.70;1.00
11091;DHT22;5599;52.210;21.046;2024-02-21T07:59:28;7.80;1.00
11091;DHT22;5599;52.210;21.046;2024-02-21T08:01:57;7.80;1.00
11091;DHT22;5599;52.210;21.046;2024-02-21T08:04:26;7.90;1.00
11091;DHT22;5599;52.210;21.046;2024-02-21T08:06:55;8.00;1.00
11091;DHT22;5599;52.210;21.046;2024-02-21T08:09:26;8.10;1.00
11091;DHT22;5599;52.210;21.046;2024-02-21T08:11:55;8.20;1.00
11091;DHT22;5599;52.210;21.046;2024-02-21T08:14:24;8.20;99.90
11091;DHT22;5599;52.210;21.046;2024-02-21T08:16:55;8.30;99.90
11091;DHT22;5599;52.210;21.046;2024-02-21T08:19:24;8.40;99.90
11091;DHT22;5599;52.210;21.046;2024-02-21T08:21:53;8.50;99.90
11091;DHT22;5599;52.210;21.046;2024-02-21T08:24:22;8.50;99.90
11091;DHT22;5599;52.210;21.046;2024-02-21T08:26:51;8.60;99.90
11091;DHT22;5599;52.210;21.046;2024-02-21T08:29:20;8.60;99.90
11091;DHT22;5599;52.210;21.046;2024-02-21T08:31:49;8.90;99.90
11091;DHT22;5599;52.210;21.046;2024-02-21T08:34:20;9.00;99.90
11091;DHT22;5599;52.210;21.046;2024-02-21T08:36:49;9.00;1.00
11091;DHT22;5599;52.210;21.046;2024-02-21T08:39:18;9.00;1.00
11091;DHT22;5599;52.210;21.046;2024-02-21T08:41:47;9.00;1.00
11091;DHT22;5599;52.210;21.046;2024-02-21T08:44:24;9.00;1.00
11091;DHT22;5599;52.210;21.046;2024-02-21T08:46:54;9.00;1.00
11091;DHT22;5599;52.210;21.046;2024-02-21T08:49:25;9.00;1.00
11091;DHT22;5599;52.210;21.046;2024-02-21T08:52:01;8.90;1.00
11091;DHT22;5599;52.210;21.046;2024-02-21T08:54:31;8.90;1.00
11091;DHT22;5599;52.210;21.046;2024-02-21T08:57:00;8.80;1.00
11091;DHT22;5599;52.210;21.046;2024-02-21T08:59:31;8.90;1.00
11091;DHT22;5599;52.210;21.046;2024-02-21T09:02:01;8.90;1.00
11091;DHT22;5599;52.210;21.046;2024-02-21T09:04:32;9.00;19.30
11091;DHT22;5599;52.210;21.046;2024-02-21T09:07:01;9.10;1.00
11091;DHT22;5599;52.210;21.046;2024-02-21T09:09:30;9.20;1.00
11091;DHT22;5599;52.210;21.046;2024-02-21T09:12:00;9.30;1.00
11091;DHT22;5599;52.210;21.046;2024-02-21T09:14:33;9.40;1.00
11091;DHT22;5599;52.210;21.046;2024-02-21T09:17:02;9.50;99.90
11091;DHT22;5599;52.210;21.046;2024-02-21T09:19:33;9.40;51.50
11091;DHT22;5599;52.210;21.046;2024-02-21T09:22:02;9.40;99.90
11091;DHT22;5599;52.210;21.046;2024-02-21T09:24:31;9.50;99.90
11091;DHT22;5599;52.210;21.046;2024-02-21T09:27:00;9.40;99.90
11091;DHT22;5599;52.210;21.046;2024-02-21T09:29:30;9.40;1.00
11091;DHT22;5599;52.210;21.046;2024-02-21T09:32:00;9.40;1.00
11091;DHT22;5599;52.210;21.046;2024-02-21T09:34:30;9.40;1.00
11091;DHT22;5599;52.210;21.046;2024-02-21T09:37:01;9.40;1.00
11091;DHT22;5599;52.210;21.046;2024-02-21T09:39:30;9.50;1.00
11091;DHT22;5599;52.210;21.046;2024-02-21T09:42:02;9.50;1.00
11091;DHT22;5599;52.210;21.046;2024-02-21T09:44:36;9.60;99.90
11091;DHT22;5599;52.210;21.046;2024-02-21T09:47:10;9.50;99.90
11091;DHT22;5599;52.210;21.046;2024-02-21T09:49:42;9.40;99.90
11091;DHT22;5599;52.210;21.046;2024-02-21T09:52:15;9.40;1.00
11091;DHT22;5599;52.210;21.046;2024-02-21T09:54:44;9.30;1.00
11091;DHT22;5599;52.210;21.046;2024-02-21T09:57:13;9.30;1.00
11091;DHT22;5599;52.210;21.046;2024-02-21T09:59:43;9.30;1.00
11091;DHT22;5599;52.210;21.046;2024-02-21T10:02:13;9.30;1.00
11091;DHT22;5599;52.210;21.046;2024-02-21T10:04:42;9.30;99.90
11091;DHT22;5599;52.210;21.046;2024-02-21T10:07:14;9.30;1.00
11091;DHT22;5599;52.210;21.046;2024-02-21T10:09:43;9.30;1.00
11091;DHT22;5599;52.210;21.046;2024-02-21T10:12:15;9.40;1.00
11091;DHT22;5599;52.210;21.046;2024-02-21T10:14:46;9.50;1.00
11091;DHT22;5599;52.210;21.046;2024-02-21T10:17:16;9.60;99.90
11091;DHT22;5599;52.210;21.046;2024-02-21T10:19:46;9.50;99.90
11091;DHT22;5599;52.210;21.046;2024-02-21T10:22:17;9.60;26.90
11091;DHT22;5599;52.210;21.046;2024-02-21T10:24:48;9.60;1.00
11091;DHT22;5599;52.210;21.046;2024-02-21T10:27:17;9.60;1.00
11091;DHT22;5599;52.210;21.046;2024-02-21T10:29:49;9.70;3.30
11091;DHT22;5599;52.210;21.046;2024-02-21T10:32:19;9.70;1.00
11091;DHT22;5599;52.210;21.046;2024-02-21T10:34:48;9.70;1.00
11091;DHT22;5599;52.210;21.046;2024-02-21T10:37:21;9.70;1.00
11091;DHT22;5599;52.210;21.046;2024-02-21T10:39:50;9.80;28.50
11091;DHT22;5599;52.210;21.046;2024-02-21T10:42:21;9.70;1.00
11091;DHT22;5599;52.210;21.046;2024-02-21T10:44:51;9.80;1.00
11091;DHT22;5599;52.210;21.046;2024-02-21T10:47:23;9.80;1.00
11091;DHT22;5599;52.210;21.046;2024-02-21T10:49:59;9.80;1.00
11091;DHT22;5599;52.210;21.046;2024-02-21T10:52:41;9.70;6.40
11091;DHT22;5599;52.210;21.046;2024-02-21T10:55:20;9.70;99.90
11091;DHT22;5599;52.210;21.046;2024-02-21T10:57:52;9.70;99.90
11091;DHT22;5599;52.210;21.046;2024-02-21T11:00:21;9.70;99.90
11091;DHT22;5599;52.210;21.046;2024-02-21T11:02:54;9.70;99.90
11091;DHT22;5599;52.210;21.046;2024-02-21T11:05:24;9.80;38.70
11091;DHT22;5599;52.210;21.046;2024-02-21T11:07:57;9.70;99.90
11091;DHT22;5599;52.210;21.046;2024-02-21T11:10:27;9.80;1.00
11091;DHT22;5599;52.210;21.046;2024-02-21T11:13:06;9.80;99.90
11091;DHT22;5599;52.210;21.046;2024-02-21T11:15:36;9.90;1.00
11091;DHT22;5599;52.210;21.046;2024-02-21T11:18:05;9.90;99.90
11091;DHT22;5599;52.210;21.046;2024-02-21T11:20:35;9.90;99.90
11091;DHT22;5599;52.210;21.046;2024-02-21T11:23:06;9.80;99.90
11091;DHT22;5599;52.210;21.046;2024-02-21T11:25:35;9.80;99.90
11091;DHT22;5599;52.210;21.046;2024-02-21T11:28:04;9.90;99.90
11091;DHT22;5599;52.210;21.046;2024-02-21T11:30:36;9.80;99.90
11091;DHT22;5599;52.210;21.046;2024-02-21T11:33:06;9.90;99.90
11091;DHT22;5599;52.210;21.046;2024-02-21T11:35:36;9.80;99.90
11091;DHT22;5599;52.210;21.046;2024-02-21T11:38:11;9.80;99.90
11091;DHT22;5599;52.210;21.046;2024-02-21T11:40:45;9.80;1.00
11091;DHT22;5599;52.210;21.046;2024-02-21T11:43:15;9.80;1.00
11091;DHT22;5599;52.210;21.046;2024-02-21T11:45:44;9.70;1.00
11091;DHT22;5599;52.210;21.046;2024-02-21T11:48:14;9.60;1.00
11091;DHT22;5599;52.210;21.046;2024-02-21T11:50:53;9.60;91.50
11091;DHT22;5599;52.210;21.046;2024-02-21T11:53:23;9.70;55.90
11091;DHT22;5599;52.210;21.046;2024-02-21T11:55:54;9.70;77.90
11091;DHT22;5599;52.210;21.046;2024-02-21T11:58:24;9.60;93.10
11091;DHT22;5599;52.210;21.046;2024-02-21T12:00:54;9.40;99.90
11091;DHT22;5599;52.210;21.046;2024-02-21T12:03:23;9.40;99.90
11091;DHT22;5599;52.210;21.046;2024-02-21T12:05:53;9.30;99.90
11091;DHT22;5599;52.210;21.046;2024-02-21T12:08:25;9.30;99.90
11091;DHT22;5599;52.210;21.046;2024-02-21T12:10:56;9.30;99.90
11091;DHT22;5599;52.210;21.046;2024-02-21T12:13:25;9.20;99.90
11091;DHT22;5599;52.210;21.046;2024-02-21T12:15:55;9.20;1.00
11091;DHT22;5599;52.210;21.046;2024-02-21T12:18:24;9.30;1.00
11091;DHT22;5599;52.210;21.046;2024-02-21T12:20:54;9.20;99.90
11091;DHT22;5599;52.210;21.046;2024-02-21T12:23:23;9.20;99.90
11091;DHT22;5599;52.210;21.046;2024-02-21T12:25:58;9.20;99.90
11091;DHT22;5599;52.210;21.046;2024-02-21T12:28:27;9.20;99.90
11091;DHT22;5599;52.210;21.046;2024-02-21T12:30:56;9.10;99.90
11091;DHT22;5599;52.210;21.046;2024-02-21T12:33:25;9.10;1.00
11091;DHT22;5599;52.210;21.046;2024-02-21T12:35:54;9.10;1.00
11091;DHT22;5599;52.210;21.046;2024-02-21T12:38:24;9.10;1.00
11091;DHT22;5599;52.210;21.046;2024-02-21T12:40:53;9.10;1.00
11091;DHT22;5599;52.210;21.046;2024-02-21T12:43:23;9.10;1.00
11091;DHT22;5599;52.210;21.046;2024-02-21T12:45:52;9.10;1.00
11091;DHT22;5599;52.210;21.046;2024-02-21T12:48:21;9.20;1.00
11091;DHT22;5599;52.210;21.046;2024-02-21T12:50:51;9.20;1.00
11091;DHT22;5599;52.210;21.046;2024-02-21T12:53:21;9.20;1.00
11091;DHT22;5599;52.210;21.046;2024-02-21T12:55:59;9.10;1.00
11091;DHT22;5599;52.210;21.046;2024-02-21T12:58:30;9.10;1.00
11091;DHT22;5599;52.210;21.046;2024-02-21T13:00:59;9.00;1.00
11091;DHT22;5599;52.210;21.046;2024-02-21T13:03:28;9.00;1.00
11091;DHT22;5599;52.210;21.046;2024-02-21T13:06:00;9.00;1.00
11091;DHT22;5599;52.210;21.046;2024-02-21T13:08:29;9.00;1.00
11091;DHT22;5599;52.210;21.046;2024-02-21T13:10:58;9.00;1.00
11091;DHT22;5599;52.210;21.046;2024-02-21T13:13:27;9.00;1.00
11091;DHT22;5599;52.210;21.046;2024-02-21T13:15:58;9.00;1.00
11091;DHT22;5599;52.210;21.046;2024-02-21T13:18:27;9.10;1.00
11091;DHT22;5599;52.210;21.046;2024-02-21T13:20:56;9.10;1.00
11091;DHT22;5599;52.210;21.046;2024-02-21T13:23:25;9.10;1.00
11091;DHT22;5599;52.210;21.046;2024-02-21T13:25:54;9.10;1.00
11091;DHT22;5599;52.210;21.046;2024-02-21T13:28:23;9.10;1.00
11091;DHT22;5599;52.210;21.046;2024-02-21T13:30:52;9.10;1.00
11091;DHT22;5599;52.210;21.046;2024-02-21T13:33:22;9.20;1.00
11091;DHT22;5599;52.210;21.046;2024-02-21T13:35:51;9.10;1.00
11091;DHT22;5599;52.210;21.046;2024-02-21T13:38:20;9.00;1.00
11091;DHT22;5599;52.210;21.046;2024-02-21T13:40:49;8.90;1.00
11091;DHT22;5599;52.210;21.046;2024-02-21T13:43:18;9.00;1.00
11091;DHT22;5599;52.210;21.046;2024-02-21T13:46:00;9.00;1.00
11091;DHT22;5599;52.210;21.046;2024-02-21T13:48:31;9.00;1.00
11091;DHT22;5599;52.210;21.046;2024-02-21T13:51:01;9.00;1.00
11091;DHT22;5599;52.210;21.046;2024-02-21T13:53:30;9.00;1.00
11091;DHT22;5599;52.210;21.046;2024-02-21T13:55:59;8.80;1.00
11091;DHT22;5599;52.210;21.046;2024-02-21T13:58:28;8.90;1.00
11091;DHT22;5599;52.210;21.046;2024-02-21T14:00:57;8.90;1.00
11091;DHT22;5599;52.210;21.046;2024-02-21T14:03:26;8.90;1.00
11091;DHT22;5599;52.210;21.046;2024-02-21T14:05:57;8.80;1.00
11091;DHT22;5599;52.210;21.046;2024-02-21T14:08:27;8.80;1.00
11091;DHT22;5599;52.210;21.046;2024-02-21T14:10:56;8.90;1.00
11091;DHT22;5599;52.210;21.046;2024-02-21T14:13:27;8.90;1.00
11091;DHT22;5599;52.210;21.046;2024-02-21T14:15:56;8.90;1.00
11091;DHT22;5599;52.210;21.046;2024-02-21T14:18:25;8.90;1.00
11091;DHT22;5599;52.210;21.046;2024-02-21T14:20:54;8.80;1.00
11091;DHT22;5599;52.210;21.046;2024-02-21T14:23:25;8.80;1.00
11091;DHT22;5599;52.210;21.046;2024-02-21T14:25:54;8.80;1.00
11091;DHT22;5599;52.210;21.046;2024-02-21T14:28:23;8.80;1.00
11091;DHT22;5599;52.210;21.046;2024-02-21T14:30:52;8.80;1.00
11091;DHT22;5599;52.210;21.046;2024-02-21T14:33:24;8.90;1.00
11091;DHT22;5599;52.210;21.046;2024-02-21T14:35:54;8.80;1.00
11091;DHT22;5599;52.210;21.046;2024-02-21T14:38:24;8.80;1.00
11091;DHT22;5599;52.210;21.046;2024-02-21T14:40:54;8.90;1.00
11091;DHT22;5599;52.210;21.046;2024-02-21T14:43:23;8.90;1.00
11091;DHT22;5599;52.210;21.046;2024-02-21T14:45:53;8.90;1.00
11091;DHT22;5599;52.210;21.046;2024-02-21T14:48:22;8.80;1.00
11091;DHT22;5599;52.210;21.046;2024-02-21T14:50:53;8.80;1.00
11091;DHT22;5599;52.210;21.046;2024-02-21T14:53:22;8.80;1.00
11091;DHT22;5599;52.210;21.046;2024-02-21T14:55:53;8.80;1.00
11091;DHT22;5599;52.210;21.046;2024-02-21T14:58:22;8.80;1.00
11091;DHT22;5599;52.210;21.046;2024-02-21T15:00:51;8.70;1.00
11091;DHT22;5599;52.210;21.046;2024-02-21T15:03:22;8.70;1.00
11091;DHT22;5599;52.210;21.046;2024-02-21T15:05:52;8.70;1.00
11091;DHT22;5599;52.210;21.046;2024-02-21T15:08:21;8.70;1.00
11091;DHT22;5599;52.210;21.046;2024-02-21T15:10:52;8.70;1.00
11091;DHT22;5599;52.210;21.046;2024-02-21T15:13:21;8.70;1.00
11091;DHT22;5599;52.210;21.046;2024-02-21T15:15:51;8.70;1.00
11091;DHT22;5599;52.210;21.046;2024-02-21T15:18:20;8.70;1.00
11091;DHT22;5599;52.210;21.046;2024-02-21T15:20:49;8.70;1.00
11091;DHT22;5599;52.210;21.046;2024-02-21T15:23:18;8.70;1.00
11091;DHT22;5599;52.210;21.046;2024-02-21T15:25:47;8.70;1.00
11091;DHT22;5599;52.210;21.046;2024-02-21T15:28:18;8.60;1.00
11091;DHT22;5599;52.210;21.046;2024-02-21T15:30:47;8.60;1.00
11091;DHT22;5599;52.210;21.046;2024-02-21T15:33:16;8.50;1.00
11091;DHT22;5599;52.210;21.046;2024-02-21T15:35:45;8.50;1.00
11091;DHT22;5599;52.210;21.046;2024-02-21T15:38:15;8.60;1.00
11091;DHT22;5599;52.210;21.046;2024-02-21T15:40:44;8.60;1.00
11091;DHT22;5599;52.210;21.046;2024-02-21T15:43:13;8.50;1.00
11091;DHT22;5599;52.210;21.046;2024-02-21T15:45:43;8.60;1.00
11091;DHT22;5599;52.210;21.046;2024-02-21T15:48:13;8.50;1.00
11091;DHT22;5599;52.210;21.046;2024-02-21T15:50:42;8.60;1.00
11091;DHT22;5599;52.210;21.046;2024-02-21T15:53:12;8.60;1.00
11091;DHT22;5599;52.210;21.046;2024-02-21T15:55:41;8.60;1.00
11091;DHT22;5599;52.210;21.046;2024-02-21T15:58:10;8.60;1.00
11091;DHT22;5599;52.210;21.046;2024-02-21T16:00:39;8.50;1.00
11091;DHT22;5599;52.210;21.046;2024-02-21T16:03:09;8.60;1.00
11091;DHT22;5599;52.210;21.046;2024-02-21T16:05:38;8.60;1.00
11091;DHT22;5599;52.210;21.046;2024-02-21T16:08:07;8.60;1.00
11091;DHT22;5599;52.210;21.046;2024-02-21T16:10:36;8.50;1.00
11091;DHT22;5599;52.210;21.046;2024-02-21T16:13:07;8.60;1.00
11091;DHT22;5599;52.210;21.046;2024-02-21T16:15:38;8.50;1.00